createdAt,value
2023-02-06T00:04:21.871Z,4.90
2023-02-06T00:09:25.517Z,4.50
2023-02-06T00:14:30.347Z,4.28
2023-02-06T00:24:36.985Z,4.07
2023-02-06T00:29:42.026Z,4.18
2023-02-06T00:34:45.598Z,4.18
2023-02-06T00:39:49.339Z,4.28
2023-02-06T00:44:54.261Z,4.10
2023-02-06T00:49:57.946Z,4.15
2023-02-06T00:55:01.433Z,3.95
2023-02-06T01:00:08.314Z,3.90
2023-02-06T01:05:12.163Z,3.28
2023-02-06T01:10:16.267Z,3.43
2023-02-06T01:15:21.118Z,3.65
2023-02-06T01:20:24.925Z,3.88
2023-02-06T01:25:28.379Z,4.00
2023-02-06T01:30:33.561Z,3.75
2023-02-06T01:35:37.393Z,4.18
2023-02-06T01:40:41.184Z,4.20
2023-02-06T01:45:47.726Z,4.15
2023-02-06T01:50:55.016Z,4.72
2023-02-06T01:56:02.450Z,4.00
2023-02-06T02:01:08.977Z,3.97
2023-02-06T02:06:15.455Z,3.90
2023-02-06T02:11:25.022Z,3.33
2023-02-06T02:16:42.155Z,3.95
2023-02-06T02:22:23.117Z,4.38
2023-02-06T02:28:00.490Z,3.88
2023-02-06T02:33:36.444Z,3.92
2023-02-06T02:38:53.610Z,4.15
2023-02-06T02:44:03.177Z,3.90
2023-02-06T02:49:12.782Z,4.20
2023-02-06T02:54:17.704Z,3.53
2023-02-06T02:59:25.717Z,3.45
2023-02-06T03:04:36.377Z,3.28
2023-02-06T03:09:59.156Z,3.45
2023-02-06T03:15:09.127Z,3.38
2023-02-06T03:20:14.003Z,4.65
2023-02-06T03:25:25.204Z,3.85
2023-02-06T03:30:31.512Z,3.55
2023-02-06T03:35:38.460Z,3.50
2023-02-06T03:40:48.825Z,3.55
2023-02-06T03:45:55.847Z,3.00
2023-02-06T03:51:04.302Z,3.25
2023-02-06T03:56:14.502Z,3.65
2023-02-06T04:01:19.128Z,3.05
2023-02-06T04:06:22.994Z,3.30
2023-02-06T04:11:28.012Z,3.80
2023-02-06T04:16:31.628Z,3.90
2023-02-06T04:21:35.272Z,3.47
2023-02-06T04:26:40.375Z,4.07
2023-02-06T04:31:44.293Z,3.80
2023-02-06T04:36:47.933Z,3.50
2023-02-06T04:41:53.486Z,3.58
2023-02-06T04:46:57.139Z,3.72
2023-02-06T04:52:00.746Z,3.50
2023-02-06T04:57:05.782Z,2.95
2023-02-06T05:02:09.403Z,3.20
2023-02-06T05:07:13.047Z,3.55
2023-02-06T05:12:18.125Z,3.17
2023-02-06T05:17:21.774Z,3.67
2023-02-06T05:22:25.396Z,3.67
2023-02-06T05:27:30.477Z,3.60
2023-02-06T05:32:33.847Z,3.70
2023-02-06T05:37:38.980Z,3.28
2023-02-06T05:42:43.792Z,3.47
2023-02-06T05:47:47.590Z,4.10
2023-02-06T05:52:50.983Z,3.80
2023-02-06T05:57:55.974Z,3.70
2023-02-06T06:02:59.390Z,3.83
2023-02-06T06:08:03.082Z,3.63
2023-02-06T06:13:08.470Z,4.60
2023-02-06T06:18:12.385Z,4.13
2023-02-06T06:23:15.878Z,3.80
2023-02-06T06:28:20.963Z,4.18
2023-02-06T06:33:24.507Z,4.10
2023-02-06T06:38:28.471Z,4.00
2023-02-06T06:43:33.745Z,4.10
2023-02-06T06:48:38.611Z,4.13
2023-02-06T06:53:42.133Z,3.70
2023-02-06T06:58:47.201Z,3.80
2023-02-06T07:03:50.668Z,3.72
2023-02-06T07:08:54.773Z,3.53
2023-02-06T07:13:59.721Z,3.70
2023-02-06T07:19:03.340Z,4.45
2023-02-06T07:24:07.330Z,4.27
2023-02-06T07:29:12.383Z,3.87
2023-02-06T07:34:16.913Z,3.60
2023-02-06T07:39:20.670Z,4.10
2023-02-06T07:44:25.643Z,3.75
2023-02-06T07:49:29.273Z,3.88
2023-02-06T07:54:33.213Z,4.05
2023-02-06T07:59:38.250Z,4.17
2023-02-06T08:04:41.862Z,3.83
2023-02-06T08:09:45.636Z,3.88
2023-02-06T08:14:50.545Z,3.30
2023-02-06T08:19:54.000Z,3.30
2023-02-06T08:24:57.496Z,3.13
2023-02-06T08:30:02.396Z,3.00
2023-02-06T08:35:08.137Z,3.22
2023-02-06T08:40:12.815Z,3.08
2023-02-06T08:45:17.847Z,3.45
2023-02-06T08:50:21.464Z,3.45
2023-02-06T08:55:25.184Z,3.45
2023-02-06T09:00:30.473Z,3.70
2023-02-06T09:05:34.924Z,3.28
2023-02-06T09:10:38.695Z,3.00
2023-02-06T09:15:43.620Z,3.45
2023-02-06T09:20:49.889Z,3.08
2023-02-06T09:25:53.263Z,3.70
2023-02-06T09:30:58.542Z,3.22
2023-02-06T09:36:07.137Z,3.10
2023-02-06T09:41:18.554Z,3.45
2023-02-06T09:46:28.625Z,3.75
2023-02-06T09:51:44.210Z,3.72
2023-02-06T09:56:55.620Z,4.05
2023-02-06T10:02:15.746Z,4.43
2023-02-06T10:07:34.414Z,4.20
2023-02-06T10:12:42.827Z,3.90
2023-02-06T10:17:53.986Z,4.13
2023-02-06T10:23:10.063Z,4.78
2023-02-06T10:28:23.223Z,4.85
2023-02-06T10:33:36.346Z,4.07
2023-02-06T10:38:58.640Z,3.35
2023-02-06T10:44:09.916Z,4.28
2023-02-06T10:49:22.738Z,4.43
2023-02-06T10:54:31.490Z,4.32
2023-02-06T10:59:40.832Z,4.30
2023-02-06T11:04:51.892Z,3.88
2023-02-06T11:09:55.578Z,3.80
2023-02-06T11:15:05.022Z,3.38
2023-02-06T11:20:22.104Z,3.80
2023-02-06T11:25:31.708Z,3.83
2023-02-06T11:30:38.797Z,4.38
2023-02-06T11:35:55.021Z,2.90
2023-02-06T11:41:02.381Z,3.45
2023-02-06T11:46:17.091Z,3.95
2023-02-06T11:51:25.623Z,3.72
2023-02-06T11:56:30.691Z,4.00
2023-02-06T12:01:43.386Z,3.40
2023-02-06T12:06:48.514Z,3.65
2023-02-06T12:11:59.126Z,3.35
2023-02-06T12:17:05.073Z,3.20
2023-02-06T12:22:17.824Z,2.90
2023-02-06T12:27:24.567Z,3.75
2023-02-06T12:32:33.275Z,3.60
2023-02-06T12:37:44.330Z,3.00
2023-02-06T12:42:51.674Z,3.50
2023-02-06T12:47:59.483Z,3.10
2023-02-06T12:53:07.939Z,3.78
2023-02-06T12:58:28.504Z,2.78
2023-02-06T13:03:36.897Z,3.42
2023-02-06T13:08:46.618Z,3.13
2023-02-06T13:13:51.017Z,3.63
2023-02-06T13:18:55.333Z,3.50
2023-02-06T13:24:17.172Z,3.33
2023-02-06T13:29:26.863Z,3.10
2023-02-06T13:34:30.523Z,3.42
2023-02-06T13:39:35.650Z,2.97
2023-02-06T13:44:40.775Z,3.20
2023-02-06T13:50:22.623Z,3.30
2023-02-06T13:55:39.361Z,3.30
2023-02-06T14:00:48.258Z,3.08
2023-02-06T14:06:01.286Z,3.38
2023-02-06T14:11:30.754Z,3.13
2023-02-06T14:16:46.159Z,2.95
2023-02-06T14:21:58.999Z,2.33
2023-02-06T14:27:18.713Z,2.60
2023-02-06T14:32:48.039Z,2.50
2023-02-06T14:38:09.550Z,3.10
2023-02-06T14:43:19.187Z,2.78
2023-02-06T14:48:27.896Z,3.10
2023-02-06T14:53:33.960Z,2.40
2023-02-06T14:58:38.988Z,2.60
2023-02-06T15:03:42.997Z,2.60
2023-02-06T15:08:50.422Z,2.22
2023-02-06T15:13:57.599Z,2.72
2023-02-06T15:19:14.662Z,2.63
2023-02-06T15:24:40.126Z,3.35
2023-02-06T15:29:49.910Z,2.58
2023-02-06T15:34:53.508Z,3.00
2023-02-06T15:39:58.674Z,3.25
2023-02-06T15:45:03.845Z,3.17
2023-02-06T15:50:12.507Z,3.60
2023-02-06T15:55:27.883Z,2.97
2023-02-06T16:00:36.731Z,2.95
2023-02-06T16:05:43.724Z,2.95
2023-02-06T16:10:52.228Z,2.72
2023-02-06T16:16:06.847Z,2.78
2023-02-06T16:21:21.641Z,2.75
2023-02-06T16:26:27.904Z,2.90
2023-02-06T16:31:36.142Z,2.75
2023-02-06T16:36:39.891Z,3.13
2023-02-06T16:41:43.704Z,3.10
2023-02-06T16:46:48.760Z,3.13
2023-02-06T16:51:55.128Z,3.17
2023-02-06T16:57:07.724Z,3.83
2023-02-06T17:02:15.092Z,3.67
2023-02-06T17:07:21.162Z,3.40
2023-02-06T17:12:24.836Z,4.18
2023-02-06T17:17:29.922Z,3.95
2023-02-06T17:22:33.309Z,4.17
2023-02-06T17:27:36.965Z,4.03
2023-02-06T17:32:41.765Z,4.40
2023-02-06T17:42:49.238Z,3.80
2023-02-06T17:47:54.932Z,4.30
2023-02-06T17:52:59.730Z,4.00
2023-02-06T18:03:08.063Z,4.00
2023-02-06T18:08:12.333Z,4.07
2023-02-06T18:13:15.728Z,4.20
2023-02-06T18:18:22.056Z,3.88
2023-02-06T18:23:25.741Z,4.40
2023-02-06T18:28:32.233Z,4.00
2023-02-06T18:33:37.413Z,4.80
2023-02-06T18:38:41.055Z,4.50
2023-02-06T18:43:44.593Z,4.22
2023-02-06T18:48:49.663Z,4.32
2023-02-06T18:53:53.369Z,4.47
2023-02-06T18:58:57.073Z,4.80
2023-02-06T19:04:02.013Z,4.65
2023-02-06T19:09:08.106Z,4.15
2023-02-06T19:14:15.565Z,4.10
2023-02-06T19:19:20.694Z,4.23
2023-02-06T19:24:26.469Z,5.07
2023-02-06T19:29:36.124Z,4.13
2023-02-06T19:34:44.327Z,4.35
2023-02-06T19:39:48.152Z,4.80
2023-02-06T19:44:54.668Z,4.20
2023-02-06T19:49:59.715Z,4.50
2023-02-06T19:55:03.255Z,4.97
2023-02-06T20:00:07.888Z,5.07
2023-02-06T20:10:16.561Z,5.03
2023-02-06T20:15:20.153Z,4.47
2023-02-06T20:20:25.248Z,4.67
2023-02-06T20:25:28.938Z,4.57
2023-02-06T20:30:33.251Z,4.67
2023-02-06T20:35:42.658Z,4.60
2023-02-06T20:40:51.792Z,5.20
2023-02-06T20:45:55.355Z,5.73
2023-02-06T20:51:01.099Z,5.30
2023-02-06T20:56:04.803Z,5.20
2023-02-06T21:01:14.686Z,4.57
2023-02-06T21:06:21.291Z,4.93
2023-02-06T21:11:29.466Z,4.72
2023-02-06T21:16:34.061Z,4.40
2023-02-06T21:21:39.840Z,4.18
2023-02-06T21:26:43.879Z,4.10
2023-02-06T21:31:47.587Z,4.22
2023-02-06T21:36:53.763Z,3.50
2023-02-06T21:41:57.767Z,3.55
2023-02-06T21:47:01.762Z,4.60
2023-02-06T21:52:06.960Z,4.78
2023-02-06T21:57:10.559Z,3.78
2023-02-06T22:02:14.268Z,4.60
2023-02-06T22:07:20.162Z,4.28
2023-02-06T22:12:23.780Z,4.40
2023-02-06T22:17:27.709Z,4.10
2023-02-06T22:22:32.561Z,4.53
2023-02-06T22:32:40.831Z,4.07
2023-02-06T22:37:47.486Z,4.22
2023-02-06T22:42:50.866Z,4.03
2023-02-06T22:47:54.747Z,4.10
2023-02-06T22:53:16.781Z,4.50
2023-02-06T22:58:20.423Z,4.00
2023-02-06T23:03:24.028Z,4.00
2023-02-06T23:08:29.211Z,3.87
2023-02-06T23:13:33.213Z,4.20
2023-02-06T23:18:37.398Z,4.22
2023-02-06T23:23:42.866Z,4.35
2023-02-06T23:28:46.725Z,4.45
2023-02-06T23:33:50.162Z,4.63
2023-02-06T23:38:55.474Z,4.17
2023-02-06T23:44:01.657Z,4.03
2023-02-06T23:49:05.738Z,3.40
2023-02-06T23:54:10.704Z,4.00
2023-02-06T23:59:14.389Z,3.87
